createdAt,value
2022-08-11T00:01:00.397Z,3.00
2022-08-11T00:03:43.620Z,3.58
2022-08-11T00:06:14.197Z,3.10
2022-08-11T00:08:42.524Z,4.00
2022-08-11T00:11:13.358Z,3.00
2022-08-11T00:13:45.524Z,3.22
2022-08-11T00:16:17.512Z,5.07
2022-08-11T00:18:47.354Z,3.45
2022-08-11T00:21:15.037Z,3.30
2022-08-11T00:24:03.750Z,3.22
2022-08-11T00:26:31.845Z,5.18
2022-08-11T00:29:12.038Z,3.08
2022-08-11T00:31:53.849Z,3.05
2022-08-11T00:34:26.917Z,2.75
2022-08-11T00:37:07.685Z,3.38
2022-08-11T00:39:44.774Z,3.13
2022-08-11T00:42:24.246Z,2.97
2022-08-11T00:47:34.127Z,5.40
2022-08-11T00:50:17.546Z,4.28
2022-08-11T00:52:53.809Z,4.43
2022-08-11T00:55:47.152Z,4.22
2022-08-11T00:58:56.395Z,4.85
2022-08-11T01:01:34.833Z,3.35
2022-08-11T01:04:14.104Z,3.03
2022-08-11T01:08:01.703Z,7.60
2022-08-11T01:10:29.900Z,4.72
2022-08-11T01:13:29.304Z,2.97
2022-08-11T01:16:17.837Z,2.95
2022-08-11T01:19:04.978Z,3.17
2022-08-11T01:22:10.152Z,3.13
2022-08-11T01:24:55.812Z,3.97
2022-08-11T01:27:47.599Z,3.22
2022-08-11T01:30:37.255Z,2.97
2022-08-11T01:33:41.605Z,3.15
2022-08-11T01:36:08.619Z,4.90
2022-08-11T01:39:09.539Z,3.42
2022-08-11T01:42:23.130Z,3.13
2022-08-11T01:45:09.074Z,2.70
2022-08-11T01:47:53.459Z,3.38
2022-08-11T01:50:40.029Z,3.10
2022-08-11T01:53:35.670Z,2.83
2022-08-11T01:56:33.227Z,3.03
2022-08-11T01:59:22.616Z,4.65
2022-08-11T02:02:18.915Z,3.30
2022-08-11T02:04:59.587Z,3.28
2022-08-11T02:08:08.402Z,3.75
2022-08-11T02:14:21.065Z,6.32
2022-08-11T02:17:06.725Z,4.72
2022-08-11T02:19:58.384Z,4.18
2022-08-11T02:22:49.970Z,6.05
2022-08-11T02:25:41.335Z,3.38
2022-08-11T02:28:19.794Z,3.05
2022-08-11T02:32:15.409Z,3.65
2022-08-11T02:34:44.634Z,3.00
2022-08-11T02:37:32.719Z,4.25
2022-08-11T02:39:59.645Z,4.82
2022-08-11T02:42:45.933Z,3.60
2022-08-11T02:45:31.087Z,3.33
2022-08-11T02:48:16.803Z,3.53
2022-08-11T02:50:52.955Z,2.90
2022-08-11T02:53:56.339Z,3.30
2022-08-11T02:56:52.657Z,3.28
2022-08-11T02:59:54.464Z,3.53
2022-08-11T03:02:42.867Z,2.83
2022-08-11T03:05:18.265Z,3.63
2022-08-11T03:07:54.165Z,5.15
2022-08-11T03:10:33.749Z,4.20
2022-08-11T03:13:34.869Z,4.57
2022-08-11T03:16:39.409Z,3.38
2022-08-11T03:19:20.312Z,4.88
2022-08-11T03:22:06.321Z,3.88
2022-08-11T03:24:46.491Z,3.67
2022-08-11T03:27:52.577Z,3.17
2022-08-11T03:30:46.128Z,3.20
2022-08-11T03:33:41.411Z,3.28
2022-08-11T03:36:11.169Z,5.18
2022-08-11T03:42:01.480Z,3.05
2022-08-11T03:44:43.634Z,3.47
2022-08-11T03:47:37.975Z,7.07
2022-08-11T03:50:24.817Z,2.95
2022-08-11T03:53:16.359Z,3.28
2022-08-11T03:56:11.646Z,3.05
2022-08-11T03:58:47.912Z,3.28
2022-08-11T04:01:32.519Z,3.30
2022-08-11T04:04:32.340Z,3.83
2022-08-11T04:07:05.018Z,3.92
2022-08-11T04:09:46.512Z,6.47
2022-08-11T04:12:35.359Z,2.90
2022-08-11T04:15:44.492Z,4.22
2022-08-11T04:18:32.420Z,4.88
2022-08-11T04:21:00.168Z,3.08
2022-08-11T04:24:36.903Z,3.58
2022-08-11T04:27:37.302Z,5.20
2022-08-11T04:30:09.031Z,7.15
2022-08-11T04:32:39.314Z,3.10
2022-08-11T04:35:50.163Z,3.40
2022-08-11T04:38:59.180Z,3.67
2022-08-11T04:42:15.588Z,5.07
2022-08-11T04:45:04.416Z,3.60
2022-08-11T04:48:01.825Z,5.85
2022-08-11T04:51:18.878Z,18.65
2022-08-11T04:54:31.983Z,16.40
2022-08-11T04:57:27.268Z,12.60
2022-08-11T05:00:27.007Z,12.55
2022-08-11T05:03:20.106Z,8.38
2022-08-11T05:06:06.534Z,7.63
2022-08-11T05:08:55.727Z,7.22
2022-08-11T05:11:47.614Z,9.60
2022-08-11T05:15:06.441Z,5.25
2022-08-11T05:17:59.703Z,6.80
2022-08-11T05:20:46.075Z,7.25
2022-08-11T05:23:33.461Z,3.75
2022-08-11T05:26:46.841Z,5.40
2022-08-11T05:29:46.893Z,4.95
2022-08-11T05:32:35.975Z,6.47
2022-08-11T05:35:06.020Z,9.80
2022-08-11T05:38:02.768Z,15.93
2022-08-11T05:40:50.937Z,12.57
2022-08-11T05:43:37.584Z,9.23
2022-08-11T05:46:46.144Z,10.27
2022-08-11T05:49:33.549Z,9.27
2022-08-11T05:52:21.558Z,12.90
2022-08-11T05:55:24.867Z,6.55
2022-08-11T05:58:02.121Z,6.40
2022-08-11T06:00:30.348Z,4.38
2022-08-11T06:03:00.862Z,4.72
2022-08-11T06:05:38.402Z,5.93
2022-08-11T06:08:12.497Z,3.95
2022-08-11T06:10:44.609Z,4.50
2022-08-11T06:13:16.912Z,6.80
2022-08-11T06:15:56.077Z,5.80
2022-08-11T06:18:23.647Z,5.93
2022-08-11T06:20:56.547Z,5.90
2022-08-11T06:23:30.303Z,5.50
2022-08-11T06:25:59.149Z,3.75
2022-08-11T06:28:35.899Z,6.20
2022-08-11T06:31:11.854Z,5.68
2022-08-11T06:33:45.526Z,3.95
2022-08-11T06:36:49.355Z,3.83
2022-08-11T06:39:34.566Z,3.30
2022-08-11T06:42:10.731Z,4.95
2022-08-11T06:44:51.029Z,3.00
2022-08-11T06:47:20.513Z,2.85
2022-08-11T06:50:07.004Z,5.05
2022-08-11T06:52:36.655Z,3.90
2022-08-11T06:55:57.535Z,3.97
2022-08-11T06:58:45.113Z,3.40
2022-08-11T07:01:16.018Z,4.05
2022-08-11T07:03:54.557Z,4.00
2022-08-11T07:06:51.022Z,3.00
2022-08-11T07:10:03.099Z,2.75
2022-08-11T07:12:59.968Z,3.17
2022-08-11T07:16:12.334Z,2.90
2022-08-11T07:18:53.833Z,2.65
2022-08-11T07:22:02.809Z,2.47
2022-08-11T07:28:01.115Z,2.58
2022-08-11T07:30:28.783Z,4.07
2022-08-11T07:32:59.580Z,2.50
2022-08-11T07:35:42.623Z,2.60
2022-08-11T07:38:22.239Z,2.65
2022-08-11T07:40:50.854Z,2.80
2022-08-11T07:43:18.268Z,3.47
2022-08-11T07:46:04.947Z,3.17
2022-08-11T07:48:52.310Z,3.85
2022-08-11T07:51:41.352Z,3.08
2022-08-11T07:54:17.078Z,3.05
2022-08-11T07:56:55.554Z,5.47
2022-08-11T08:00:00.586Z,3.35
2022-08-11T08:03:02.784Z,2.97
2022-08-11T08:05:49.391Z,2.50
2022-08-11T08:08:35.540Z,3.45
2022-08-11T08:11:27.208Z,8.25
2022-08-11T08:14:14.412Z,2.92
2022-08-11T08:17:01.026Z,4.90
2022-08-11T08:19:28.933Z,2.72
2022-08-11T08:22:06.150Z,5.70
2022-08-11T08:24:44.111Z,9.73
2022-08-11T08:27:14.981Z,3.88
2022-08-11T08:30:03.012Z,5.63
2022-08-11T08:32:32.344Z,2.92
2022-08-11T08:35:00.288Z,7.38
2022-08-11T08:37:45.792Z,5.93
2022-08-11T08:40:14.977Z,3.17
2022-08-11T08:43:07.369Z,4.80
2022-08-11T08:45:37.762Z,3.67
2022-08-11T08:48:11.036Z,4.20
2022-08-11T08:51:03.595Z,3.38
2022-08-11T08:53:34.909Z,3.35
2022-08-11T08:56:03.048Z,4.15
2022-08-11T08:58:31.168Z,3.20
2022-08-11T09:01:00.832Z,2.65
2022-08-11T09:04:07.182Z,2.78
2022-08-11T09:06:17.251Z,2.50
2022-08-11T09:08:45.443Z,2.28
2022-08-11T09:11:33.042Z,3.72
2022-08-11T09:14:05.151Z,3.67
2022-08-11T09:16:50.973Z,2.72
2022-08-11T09:19:20.203Z,4.55
2022-08-11T09:22:08.029Z,3.72
2022-08-11T09:24:56.029Z,4.30
2022-08-11T09:27:23.931Z,3.17
2022-08-11T09:29:51.988Z,3.58
2022-08-11T09:32:22.773Z,3.60
2022-08-11T09:34:52.094Z,2.92
2022-08-11T09:37:55.850Z,2.22
2022-08-11T09:40:32.388Z,4.05
2022-08-11T09:43:22.301Z,2.45
2022-08-11T09:45:51.667Z,4.07
2022-08-11T09:48:20.712Z,3.97
2022-08-11T09:50:54.136Z,1.77
2022-08-11T09:53:36.535Z,2.85
2022-08-11T09:56:39.310Z,2.88
2022-08-11T09:59:07.244Z,2.08
2022-08-11T10:01:48.208Z,2.55
2022-08-11T10:04:22.886Z,1.75
2022-08-11T10:07:05.514Z,2.25
2022-08-11T10:10:05.730Z,3.72
2022-08-11T10:12:41.806Z,1.92
2022-08-11T10:15:29.590Z,4.93
2022-08-11T10:18:20.972Z,4.95
2022-08-11T10:20:50.304Z,3.10
2022-08-11T10:23:36.593Z,1.83
2022-08-11T10:26:48.713Z,1.83
2022-08-11T10:29:37.616Z,2.20
2022-08-11T10:32:34.760Z,3.75
2022-08-11T10:35:26.172Z,1.92
2022-08-11T10:38:15.623Z,2.92
2022-08-11T10:40:46.862Z,1.93
2022-08-11T10:43:56.773Z,1.90
2022-08-11T10:46:28.563Z,1.77
2022-08-11T10:48:58.738Z,1.73
2022-08-11T10:51:51.179Z,2.23
2022-08-11T10:54:41.862Z,1.85
2022-08-11T10:57:28.191Z,4.32
2022-08-11T10:59:57.079Z,1.38
2022-08-11T11:02:24.339Z,1.60
2022-08-11T11:05:10.177Z,1.58
2022-08-11T11:07:44.482Z,3.10
2022-08-11T11:10:12.205Z,1.70
2022-08-11T11:13:06.133Z,3.00
2022-08-11T11:15:54.543Z,1.50
2022-08-11T11:18:35.980Z,2.00
2022-08-11T11:21:17.122Z,1.27
2022-08-11T11:24:11.918Z,1.30
2022-08-11T11:26:57.269Z,1.23
2022-08-11T11:29:39.678Z,3.50
2022-08-11T11:33:00.465Z,2.20
2022-08-11T11:35:40.333Z,2.03
2022-08-11T11:38:13.787Z,1.10
2022-08-11T11:40:41.983Z,1.73
2022-08-11T11:43:09.745Z,2.88
2022-08-11T11:45:37.121Z,1.58
2022-08-11T11:48:05.122Z,2.35
2022-08-11T11:50:35.860Z,1.52
2022-08-11T11:53:06.777Z,1.40
2022-08-11T11:55:35.267Z,4.03
2022-08-11T11:58:23.114Z,1.92
2022-08-11T12:01:10.890Z,1.20
2022-08-11T12:03:39.870Z,1.48
2022-08-11T12:06:09.424Z,1.30
2022-08-11T12:08:38.803Z,4.80
2022-08-11T12:13:53.648Z,1.20
2022-08-11T12:16:34.189Z,3.42
2022-08-11T12:19:13.172Z,1.55
2022-08-11T12:22:00.815Z,3.33
2022-08-11T12:24:52.385Z,1.40
2022-08-11T12:27:25.071Z,1.27
2022-08-11T12:30:06.001Z,1.35
2022-08-11T12:32:45.863Z,2.72
2022-08-11T12:35:15.759Z,2.22
2022-08-11T12:37:50.321Z,1.50
2022-08-11T12:41:12.007Z,2.38
2022-08-11T12:43:57.185Z,1.70
2022-08-11T12:46:29.311Z,2.17
2022-08-11T12:49:25.592Z,1.77
2022-08-11T12:52:14.713Z,4.65
2022-08-11T12:54:54.348Z,1.35
2022-08-11T12:57:53.925Z,4.15
2022-08-11T13:00:40.889Z,1.63
2022-08-11T13:03:29.042Z,1.40
2022-08-11T13:05:58.507Z,1.67
2022-08-11T13:08:27.032Z,1.83
2022-08-11T13:11:14.590Z,1.60
2022-08-11T13:13:55.501Z,1.40
2022-08-11T13:16:29.110Z,1.30
2022-08-11T13:18:58.749Z,1.67
2022-08-11T13:21:27.111Z,1.23
2022-08-11T13:24:01.955Z,2.00
2022-08-11T13:26:47.790Z,4.97
2022-08-11T13:29:19.353Z,1.73
2022-08-11T13:31:46.748Z,1.20
2022-08-11T13:34:16.021Z,3.85
2022-08-11T13:36:44.428Z,1.40
2022-08-11T13:39:13.972Z,1.43
2022-08-11T13:41:44.151Z,1.27
2022-08-11T13:44:15.825Z,1.33
2022-08-11T13:46:44.845Z,2.33
2022-08-11T13:49:15.922Z,1.30
2022-08-11T13:51:43.944Z,1.27
2022-08-11T13:54:18.838Z,1.20
2022-08-11T13:56:48.635Z,1.95
2022-08-11T13:59:30.807Z,1.15
2022-08-11T14:02:28.328Z,2.63
2022-08-11T14:04:56.396Z,1.50
2022-08-11T14:07:35.484Z,2.00
2022-08-11T14:12:52.145Z,0.95
2022-08-11T14:15:24.977Z,2.20
2022-08-11T14:17:57.221Z,1.30
2022-08-11T14:20:39.601Z,1.45
2022-08-11T14:23:10.911Z,1.85
2022-08-11T14:26:01.868Z,2.03
2022-08-11T14:28:39.968Z,2.03
2022-08-11T14:31:09.560Z,2.85
2022-08-11T14:33:58.504Z,1.80
2022-08-11T14:36:26.816Z,1.77
2022-08-11T14:38:54.873Z,2.13
2022-08-11T14:42:10.575Z,1.20
2022-08-11T14:44:51.649Z,1.02
2022-08-11T14:47:23.881Z,2.53
2022-08-11T14:50:09.732Z,1.60
2022-08-11T14:52:43.924Z,1.17
2022-08-11T14:55:30.949Z,2.05
2022-08-11T14:57:58.967Z,1.52
2022-08-11T15:00:26.623Z,2.00
2022-08-11T15:03:10.638Z,1.50
2022-08-11T15:05:56.717Z,1.63
2022-08-11T15:08:46.738Z,1.83
2022-08-11T15:11:34.690Z,2.42
2022-08-11T15:14:04.112Z,1.20
2022-08-11T15:16:50.493Z,1.40
2022-08-11T15:19:21.714Z,2.35
2022-08-11T15:22:08.800Z,1.30
2022-08-11T15:24:36.846Z,1.20
2022-08-11T15:27:27.658Z,1.85
2022-08-11T15:30:20.880Z,1.15
2022-08-11T15:33:27.612Z,1.30
2022-08-11T15:36:15.228Z,1.60
2022-08-11T15:38:48.834Z,1.42
2022-08-11T15:41:42.634Z,2.08
2022-08-11T15:44:58.768Z,1.33
2022-08-11T15:47:25.879Z,1.20
2022-08-11T15:50:11.363Z,1.58
2022-08-11T15:52:54.139Z,2.20
2022-08-11T15:55:23.490Z,1.83
2022-08-11T15:58:10.361Z,1.35
2022-08-11T16:01:04.094Z,2.92
2022-08-11T16:04:12.670Z,1.48
2022-08-11T16:07:01.541Z,1.73
2022-08-11T16:09:48.050Z,1.00
2022-08-11T16:12:23.194Z,3.38
2022-08-11T16:15:12.788Z,2.25
2022-08-11T16:17:50.029Z,2.58
2022-08-11T16:20:23.569Z,2.28
2022-08-11T16:22:57.123Z,1.50
2022-08-11T16:27:03.990Z,0.90
2022-08-11T16:28:18.746Z,1.45
2022-08-11T16:30:46.896Z,1.52
2022-08-11T16:33:22.752Z,2.00
2022-08-11T16:36:24.128Z,1.50
2022-08-11T16:38:51.522Z,1.35
2022-08-11T16:41:39.483Z,1.50
2022-08-11T16:44:36.850Z,1.63
2022-08-11T16:47:07.165Z,1.10
2022-08-11T16:49:42.933Z,1.60
2022-08-11T16:52:15.168Z,1.83
2022-08-11T16:54:44.577Z,1.60
2022-08-11T16:57:41.936Z,1.90
2022-08-11T17:00:14.840Z,3.35
2022-08-11T17:03:10.042Z,1.27
2022-08-11T17:06:08.926Z,1.70
2022-08-11T17:11:50.058Z,3.58
2022-08-11T17:14:41.023Z,1.55
2022-08-11T17:17:15.567Z,1.48
2022-08-11T17:20:38.353Z,4.25
2022-08-11T17:22:59.849Z,3.90
2022-08-11T17:25:28.787Z,1.77
2022-08-11T17:27:56.705Z,1.98
2022-08-11T17:30:45.517Z,1.60
2022-08-11T17:33:32.265Z,1.77
2022-08-11T17:36:00.827Z,2.45
2022-08-11T17:38:30.036Z,1.50
2022-08-11T17:44:26.139Z,7.43
2022-08-11T17:47:12.295Z,2.10
2022-08-11T17:49:39.870Z,2.72
2022-08-11T17:52:31.891Z,1.77
2022-08-11T17:55:52.696Z,1.58
2022-08-11T17:58:27.085Z,2.47
2022-08-11T18:00:56.106Z,1.77
2022-08-11T18:03:32.927Z,2.10
2022-08-11T18:06:02.547Z,5.28
2022-08-11T18:08:50.246Z,2.08
2022-08-11T18:12:10.212Z,1.52
2022-08-11T18:14:43.570Z,5.20
2022-08-11T18:17:29.269Z,1.60
2022-08-11T18:20:14.789Z,3.28
2022-08-11T18:23:02.891Z,2.80
2022-08-11T18:25:57.609Z,2.17
2022-08-11T18:28:47.966Z,2.35
2022-08-11T18:31:35.009Z,6.00
2022-08-11T18:34:25.364Z,1.40
2022-08-11T18:37:34.754Z,1.55
2022-08-11T18:40:29.261Z,2.80
2022-08-11T18:43:20.995Z,1.83
2022-08-11T18:46:15.292Z,2.25
2022-08-11T18:49:15.796Z,3.53
2022-08-11T18:52:06.781Z,1.90
2022-08-11T18:54:56.564Z,1.40
2022-08-11T18:57:49.809Z,1.73
2022-08-11T19:00:44.064Z,1.63
2022-08-11T19:03:48.367Z,1.88
2022-08-11T19:06:40.815Z,2.13
2022-08-11T19:09:31.549Z,5.95
2022-08-11T19:12:19.324Z,3.47
2022-08-11T19:15:08.550Z,1.95
2022-08-11T19:20:44.111Z,3.97
2022-08-11T19:23:31.645Z,4.38
2022-08-11T19:26:19.272Z,3.40
2022-08-11T19:29:08.032Z,2.65
2022-08-11T19:31:56.084Z,1.70
2022-08-11T19:34:47.021Z,2.28
2022-08-11T19:37:33.064Z,2.95
2022-08-11T19:40:23.452Z,3.60
2022-08-11T19:43:18.567Z,2.30
2022-08-11T19:46:12.262Z,4.50
2022-08-11T19:48:59.037Z,2.00
2022-08-11T19:51:45.814Z,1.80
2022-08-11T19:54:34.918Z,2.05
2022-08-11T19:57:22.162Z,2.22
2022-08-11T20:00:09.020Z,3.58
2022-08-11T20:02:54.469Z,3.92
2022-08-11T20:05:39.960Z,2.03
2022-08-11T20:08:42.716Z,2.70
2022-08-11T20:11:30.831Z,1.83
2022-08-11T20:14:17.901Z,3.33
2022-08-11T20:17:03.856Z,2.05
2022-08-11T20:19:56.084Z,2.55
2022-08-11T20:22:45.053Z,3.08
2022-08-11T20:25:32.517Z,2.15
2022-08-11T20:28:18.240Z,4.18
2022-08-11T20:31:04.620Z,2.40
2022-08-11T20:33:52.424Z,2.45
2022-08-11T20:36:37.907Z,2.13
2022-08-11T20:39:25.533Z,1.92
2022-08-11T20:42:13.265Z,3.63
2022-08-11T20:45:01.322Z,2.03
2022-08-11T20:47:59.150Z,3.45
2022-08-11T20:50:47.947Z,3.80
2022-08-11T20:53:39.092Z,2.20
2022-08-11T20:56:28.252Z,2.63
2022-08-11T20:59:38.450Z,14.73
2022-08-11T21:02:35.981Z,3.70
2022-08-11T21:06:05.399Z,2.15
2022-08-11T21:08:29.182Z,4.82
2022-08-11T21:11:15.276Z,2.65
2022-08-11T21:14:15.090Z,5.00
2022-08-11T21:17:04.635Z,2.38
2022-08-11T21:20:15.531Z,2.10
2022-08-11T21:23:20.014Z,3.28
2022-08-11T21:26:14.840Z,3.88
2022-08-11T21:29:02.067Z,4.28
2022-08-11T21:31:50.477Z,2.85
2022-08-11T21:34:38.967Z,5.47
2022-08-11T21:37:27.643Z,2.37
2022-08-11T21:40:17.485Z,3.33
2022-08-11T21:43:05.878Z,2.50
2022-08-11T21:45:53.992Z,2.53
2022-08-11T21:48:41.525Z,5.55
2022-08-11T21:51:27.415Z,3.42
2022-08-11T21:54:13.294Z,7.40
2022-08-11T21:56:59.062Z,3.60
2022-08-11T22:00:08.249Z,4.05
2022-08-11T22:03:04.829Z,4.30
2022-08-11T22:05:53.377Z,1.95
2022-08-11T22:08:39.096Z,2.43
2022-08-11T22:11:31.896Z,1.75
2022-08-11T22:14:22.216Z,2.05
2022-08-11T22:17:08.321Z,2.25
2022-08-11T22:20:00.628Z,2.35
2022-08-11T22:22:51.266Z,2.30
2022-08-11T22:25:39.164Z,3.85
2022-08-11T22:28:37.862Z,4.15
2022-08-11T22:31:24.837Z,3.08
2022-08-11T22:34:10.493Z,2.45
2022-08-11T22:36:56.856Z,3.72
2022-08-11T22:39:44.522Z,2.15
2022-08-11T22:42:32.967Z,3.17
2022-08-11T22:45:19.888Z,6.53
2022-08-11T22:48:06.576Z,3.38
2022-08-11T22:50:55.213Z,4.03
2022-08-11T22:53:58.346Z,3.08
2022-08-11T22:56:50.143Z,4.80
2022-08-11T22:59:37.840Z,4.05
2022-08-11T23:02:24.380Z,4.40
2022-08-11T23:05:11.537Z,3.88
2022-08-11T23:07:57.656Z,4.38
2022-08-11T23:10:44.534Z,5.13
2022-08-11T23:13:30.689Z,2.47
2022-08-11T23:16:17.392Z,2.88
2022-08-11T23:19:03.981Z,2.28
2022-08-11T23:21:50.791Z,2.08
2022-08-11T23:24:38.108Z,1.80
2022-08-11T23:27:27.171Z,2.00
2022-08-11T23:30:19.317Z,2.42
2022-08-11T23:33:09.837Z,3.13
2022-08-11T23:36:03.307Z,2.08
2022-08-11T23:38:51.556Z,2.95
2022-08-11T23:41:37.569Z,2.00
2022-08-11T23:44:24.353Z,1.33
2022-08-11T23:47:14.245Z,1.65
2022-08-11T23:50:01.401Z,1.67
2022-08-11T23:52:48.914Z,2.45
2022-08-11T23:55:38.932Z,1.77
2022-08-11T23:58:25.287Z,6.07
